Terminal Aerodrome Forecast
Issued by NWS Pueblo, CO

Home | Current Version | Previous Version | Text Only | Print | Product List | Glossary On
Versions: 1 2 3 4 5 6 7 8 9 10 11 12 13 14 15 16 17 18 19 20 21 22 23 24 25 26 27
000
FTUS45 KPUB 150527
TAFALS
TAF
KALS 150527Z 1506/1606 12008KT P6SM SKC
     FM150800 VRB04KT P6SM SKC
     FM151900 28010KT P6SM SCT130
     FM152300 18010KT P6SM SCT130
     FM160200 14008KT P6SM FEW130=

USA.gov is the U.S. government's official web portal to all federal, state and local government web resources and services.